Flugplatz Günzburg-Donauried (EDMG)

Hier findest Du alle Informationen zum Flugplatz Günzburg-Donauried (EDMG).

Informationen für Piloten zum Flugplatz Günzburg-Donauried

Hier findest Du alle relevanten Informationen, die Du als Pilot benötigst, um Günzburg-Donauried anzufliegen.

Flugplatz: Günzburg-Donauried ICAO-Code: EDMG
Frequenz Turm: 118,125 Mhz GAFOR Gebiet: 73
Frequenz Ground: 118,125 Mhz Mogas: nein
Platzrunde: N 2200 ft Landegebühr: -
Platzhöhe: 1.457 ft Sunrise: 03:42 Uhr UTC
Pisten: 06/24 - 580 m x 30 m, GRAS Sunset: 19:08 Uhr UTC

Flugwetter am Flugplatz Günzburg-Donauried

Die METAR Information stammen aus EDMA (48.21 km entfernt).

METAR Code:
2024/07/18 09:20
EDMA 180920Z 04007KT 360V080 9999 SCT030 22/16 Q1022

Flugschulen am Flugplatz Günzburg-Donauried

Am Flugplatz Günzburg-Donauried gibt es leider keine Flugschule.

Benachbarte Flugplätze und Flugschulen

Es gibt 25 weitere Flugplätze in einem Umkreis von 50 km um den Flugplatz Günzburg-Donauried.

Jetzt anmelden

Passwort vergessen

Umfrage Archiv

Wie häufig haltet Ihr die Halbkreisflugregel ein?

Eher häufig!
36.6 %
Immer!
30.5 %
Hin und wieder!
16.8 %
Nie!
9.3 %
Eher selten!
6.8 %
Stimmen: 279 | Diskussion
Anzeige: Roland Aircraft
Statistik Alle Mitglieder

Aktuell sind 28 Besucher online, davon 2 Mitglieder und 26 Gäste.


Mitglieder online:
ange12lo  skYraceR1337 

Anzeige: EasyVFR